Time;durP1;ratioP1;P1;durP2;ratioP2;P2;SDS_P1;SDS_P2;PMS_P1;PMS_P2;Temp;Humidity;BMP_temperature;BMP_pressure;BME280_temperature;BME280_humidity;BME280_pressure;Samples;Min_cycle;Max_cycle;Signal;HPM_P1;HPM_P2
2024/01/16 00:00:20;;;;;;;16.93;8.93;;;;;;;-0.90;100.00;100923.44;5041536;28;20090;-63
2024/01/16 00:02:45;;;;;;;14.00;8.17;;;;;;;-0.86;100.00;100914.53;5043242;28;20048;-64
2024/01/16 00:05:10;;;;;;;17.73;8.30;;;;;;;-0.80;100.00;100903.72;5043894;28;20088;-63
2024/01/16 00:07:39;;;;;;;17.13;8.40;;;;;;;-0.76;100.00;100895.59;5043477;28;20498;-63
2024/01/16 00:10:07;;;;;;;12.77;7.70;;;;;;;-0.76;100.00;100892.16;5041273;28;20029;-63
2024/01/16 00:12:32;;;;;;;13.27;7.60;;;;;;;-0.72;100.00;100904.06;5044315;28;20032;-63
2024/01/16 00:14:58;;;;;;;12.03;7.53;;;;;;;-0.71;100.00;100908.34;5045489;28;20029;-64
2024/01/16 00:17:23;;;;;;;13.33;7.23;;;;;;;-0.72;100.00;100919.72;5045847;28;20053;-64
2024/01/16 00:19:49;;;;;;;15.07;7.27;;;;;;;-0.71;100.00;100918.78;5044136;28;20029;-63
2024/01/16 00:22:14;;;;;;;13.93;6.93;;;;;;;-0.71;100.00;100916.16;5040860;28;20021;-63
2024/01/16 00:24:40;;;;;;;13.20;7.33;;;;;;;-0.72;100.00;100917.94;5044243;28;20029;-64
2024/01/16 00:27:05;;;;;;;11.67;7.27;;;;;;;-0.72;100.00;100914.50;5036959;28;20040;-64
2024/01/16 00:29:31;;;;;;;11.20;6.67;;;;;;;-0.73;100.00;100918.03;5036355;28;20558;-63
2024/01/16 00:31:56;;;;;;;13.97;6.70;;;;;;;-0.71;100.00;100921.38;5037153;28;20078;-63
2024/01/16 00:34:21;;;;;;;12.57;6.83;;;;;;;-0.69;100.00;100912.53;5046085;28;20521;-63
2024/01/16 00:36:47;;;;;;;11.90;6.80;;;;;;;-0.65;100.00;100927.03;5047780;28;20036;-64
2024/01/16 00:39:13;;;;;;;11.33;7.10;;;;;;;-0.63;100.00;100919.13;5042109;28;20033;-64
2024/01/16 00:41:38;;;;;;;12.53;7.70;;;;;;;-0.62;100.00;100919.03;5043378;28;20826;-64
2024/01/16 00:44:04;;;;;;;15.40;8.33;;;;;;;-0.57;100.00;100923.13;5041150;28;20037;-64
2024/01/16 00:46:30;;;;;;;16.10;7.83;;;;;;;-0.55;100.00;100932.53;5046856;28;20020;-64
2024/01/16 00:48:55;;;;;;;13.33;7.00;;;;;;;-0.55;100.00;100927.31;5040463;28;20406;-64
2024/01/16 00:51:20;;;;;;;15.53;7.47;;;;;;;-0.53;100.00;100930.66;5050488;28;20128;-63
2024/01/16 00:53:46;;;;;;;19.50;7.40;;;;;;;-0.51;100.00;100931.41;5043597;28;20039;-64
2024/01/16 00:56:12;;;;;;;14.47;6.70;;;;;;;-0.47;100.00;100932.03;5040758;28;20037;-64
2024/01/16 00:58:38;;;;;;;13.47;7.07;;;;;;;-0.48;100.00;100927.75;5044449;28;20531;-63
2024/01/16 01:01:03;;;;;;;11.83;6.30;;;;;;;-0.44;100.00;100940.50;5035884;28;20037;-64
2024/01/16 01:03:29;;;;;;;13.67;6.40;;;;;;;-0.45;100.00;100936.22;5045156;28;20489;-64
2024/01/16 01:05:55;;;;;;;13.53;6.57;;;;;;;-0.46;100.00;100937.16;5042593;28;20028;-64
2024/01/16 01:08:20;;;;;;;14.83;6.70;;;;;;;-0.45;100.00;100936.22;5044781;28;20017;-64
2024/01/16 01:10:45;;;;;;;18.30;7.43;;;;;;;-0.44;100.00;100930.06;5042104;28;20108;-64
2024/01/16 01:13:11;;;;;;;14.80;6.70;;;;;;;-0.42;100.00;100928.19;5040988;28;20059;-64
2024/01/16 01:15:36;;;;;;;13.20;6.47;;;;;;;-0.40;100.00;100935.94;5044128;28;20107;-64
2024/01/16 01:18:01;;;;;;;14.57;6.93;;;;;;;-0.41;100.00;100932.47;5042929;28;20502;-63
2024/01/16 01:20:27;;;;;;;14.43;6.47;;;;;;;-0.41;100.00;100934.25;5040324;28;20136;-64
2024/01/16 01:22:52;;;;;;;13.20;6.47;;;;;;;-0.39;100.00;100942.81;5042286;28;20024;-63
2024/01/16 01:25:17;;;;;;;14.73;6.60;;;;;;;-0.41;100.00;100934.25;5039740;28;20119;-64
2024/01/16 01:27:43;;;;;;;14.10;6.17;;;;;;;-0.41;100.00;100929.88;5044593;28;20026;-64
2024/01/16 01:30:12;;;;;;;12.43;5.90;;;;;;;-0.42;100.00;100930.81;5043399;28;20029;-64
2024/01/16 01:32:37;;;;;;;13.57;5.00;;;;;;;-0.39;100.00;100921.94;5038952;28;20024;-64
2024/01/16 01:35:04;;;;;;;17.27;5.60;;;;;;;-0.38;100.00;100929.66;5043066;28;20128;-64
2024/01/16 01:37:29;;;;;;;15.83;5.40;;;;;;;-0.39;100.00;100925.38;5043985;28;20529;-63
2024/01/16 01:39:55;;;;;;;14.90;5.60;;;;;;;-0.38;100.00;100921.84;5037608;28;20029;-64
2024/01/16 01:42:20;;;;;;;11.90;5.17;;;;;;;-0.39;100.00;100927.16;5037981;28;20027;-64
2024/01/16 01:44:45;;;;;;;12.00;5.67;;;;;;;-0.44;100.00;100932.69;5043579;28;20031;-64
2024/01/16 01:47:11;;;;;;;17.90;5.40;;;;;;;-0.41;100.00;100947.28;5037459;28;20035;-63
2024/01/16 01:49:37;;;;;;;10.43;4.77;;;;;;;-0.41;100.00;100936.84;5037981;28;20032;-64
2024/01/16 01:52:04;;;;;;;13.67;5.73;;;;;;;-0.43;100.00;100936.97;5044462;28;20029;-63
2024/01/16 01:54:30;;;;;;;12.63;5.40;;;;;;;-0.45;100.00;100940.59;5049973;28;20745;-64
2024/01/16 01:56:56;;;;;;;12.17;4.90;;;;;;;-0.45;100.00;100944.03;5041990;28;20031;-63
2024/01/16 01:59:23;;;;;;;12.00;5.07;;;;;;;-0.47;100.00;100934.66;5044384;28;20021;-64
2024/01/16 02:01:52;;;;;;;13.50;5.13;;;;;;;-0.45;100.00;100935.38;5028899;28;20487;-63
2024/01/16 02:04:19;;;;;;;13.60;5.10;;;;;;;-0.43;100.00;100939.56;5039228;28;20032;-64
2024/01/16 02:06:44;;;;;;;10.20;4.90;;;;;;;-0.44;100.00;100929.22;5043275;28;20064;-63
2024/01/16 02:09:13;;;;;;;13.07;4.57;;;;;;;-0.43;100.00;100944.78;5044806;28;20518;-64
2024/01/16 02:11:39;;;;;;;10.27;4.40;;;;;;;-0.39;100.00;100948.03;5042130;28;20818;-63
2024/01/16 02:14:04;;;;;;;14.13;3.77;;;;;;;-0.37;100.00;100946.16;5050038;28;20062;-64
2024/01/16 02:16:36;;;;;;;10.37;3.47;;;;;;;-0.36;100.00;100950.44;5039300;28;20629;-64
2024/01/16 02:19:01;;;;;;;13.17;3.80;;;;;;;-0.35;100.00;100946.91;5037005;28;20034;-63
2024/01/16 02:21:28;;;;;;;8.23;3.50;;;;;;;-0.40;100.00;100947.19;5042907;28;20024;-63
2024/01/16 02:23:54;;;;;;;12.73;3.50;;;;;;;-0.42;100.00;100945.63;5047810;28;20585;-63
2024/01/16 02:26:20;;;;;;;11.43;3.37;;;;;;;-0.43;100.00;100942.19;5042608;28;20063;-63
2024/01/16 02:28:45;;;;;;;8.80;3.30;;;;;;;-0.49;100.00;100945.19;5041996;28;20035;-64
2024/01/16 02:31:11;;;;;;;10.67;2.97;;;;;;;-0.43;100.00;100951.78;5040241;28;20551;-63
2024/01/16 02:33:36;;;;;;;12.63;2.87;;;;;;;-0.43;100.00;100946.56;5034899;28;20063;-63
2024/01/16 02:36:02;;;;;;;9.67;2.90;;;;;;;-0.47;100.00;100945.91;5033890;28;20638;-63
2024/01/16 02:38:27;;;;;;;9.47;2.80;;;;;;;-0.45;100.00;100956.25;5041872;28;20028;-63
2024/01/16 02:40:52;;;;;;;7.53;3.03;;;;;;;-0.43;100.00;100957.81;5038807;28;20494;-63
2024/01/16 02:43:18;;;;;;;10.67;2.40;;;;;;;-0.44;100.00;100955.31;5040416;28;20565;-64
2024/01/16 02:45:43;;;;;;;6.13;2.60;;;;;;;-0.45;100.00;100962.31;5044139;28;20040;-64
2024/01/16 02:48:09;;;;;;;8.97;3.23;;;;;;;-0.42;100.00;100969.94;5039639;28;20521;-63
2024/01/16 02:50:34;;;;;;;8.53;3.10;;;;;;;-0.39;100.00;100968.91;5040971;28;20025;-63
2024/01/16 02:53:00;;;;;;;9.63;3.10;;;;;;;-0.34;100.00;100967.66;5046552;28;20052;-64
2024/01/16 02:55:25;;;;;;;8.07;3.40;;;;;;;-0.32;100.00;100975.41;5042563;28;20393;-64
2024/01/16 02:57:50;;;;;;;8.80;3.20;;;;;;;-0.28;100.00;100976.91;5038220;28;20016;-63
2024/01/16 03:00:17;;;;;;;13.27;3.30;;;;;;;-0.25;100.00;100966.28;5029494;28;20032;-64
2024/01/16 03:02:43;;;;;;;8.63;3.40;;;;;;;-0.26;100.00;100961.16;5035890;28;20433;-64
2024/01/16 03:05:09;;;;;;;8.97;3.30;;;;;;;-0.31;100.00;100958.81;5041066;28;20033;-64
2024/01/16 03:07:35;;;;;;;7.67;3.23;;;;;;;-0.34;100.00;100962.44;5034960;28;20506;-64
2024/01/16 03:10:00;;;;;;;7.40;3.43;;;;;;;-0.37;100.00;100960.03;5036190;28;20060;-63
2024/01/16 03:12:26;;;;;;;12.23;3.43;;;;;;;-0.41;100.00;100961.19;5041503;28;20021;-64
2024/01/16 03:14:53;;;;;;;7.63;3.13;;;;;;;-0.46;100.00;100951.97;5040832;28;20398;-64
2024/01/16 03:17:18;;;;;;;9.53;3.00;;;;;;;-0.51;100.00;100956.66;5041932;28;20100;-64
2024/01/16 03:19:44;;;;;;;6.80;2.90;;;;;;;-0.55;100.00;100965.59;5038743;28;20123;-64
2024/01/16 03:22:09;;;;;;;5.43;3.17;;;;;;;-0.60;100.00;100962.41;5050529;28;20039;-64
2024/01/16 03:24:35;;;;;;;10.63;2.50;;;;;;;-0.61;100.00;100966.81;5039448;28;20032;-64
2024/01/16 03:27:01;;;;;;;6.27;2.80;;;;;;;-0.61;100.00;100969.41;5038500;28;20397;-64
2024/01/16 03:29:26;;;;;;;8.13;2.60;;;;;;;-0.61;100.00;100974.63;5039974;28;20041;-63
2024/01/16 03:31:51;;;;;;;7.73;2.40;;;;;;;-0.61;100.00;100964.19;5038017;28;20025;-64
2024/01/16 03:34:17;;;;;;;5.60;2.43;;;;;;;-0.60;100.00;100949.38;5036299;28;20061;-64
2024/01/16 03:36:42;;;;;;;5.43;2.20;;;;;;;-0.59;100.00;100946.69;5042141;28;20024;-64
2024/01/16 03:39:08;;;;;;;5.73;2.10;;;;;;;-0.55;100.00;100953.41;5034451;28;20457;-64
2024/01/16 03:41:34;;;;;;;7.83;2.30;;;;;;;-0.58;100.00;100943.13;5045614;28;20032;-64
2024/01/16 03:43:59;;;;;;;6.43;2.47;;;;;;;-0.55;100.00;100944.75;5047233;28;20027;-64
2024/01/16 03:46:24;;;;;;;6.30;2.17;;;;;;;-0.56;100.00;100937.84;5043017;28;20029;-63
2024/01/16 03:48:50;;;;;;;6.13;2.27;;;;;;;-0.53;100.00;100940.25;5041209;28;20822;-63
2024/01/16 03:51:17;;;;;;;6.60;2.70;;;;;;;-0.53;100.00;100933.28;5050514;28;20155;-63
2024/01/16 03:53:43;;;;;;;5.10;2.43;;;;;;;-0.53;100.00;100940.25;5041665;28;20017;-64
2024/01/16 03:56:08;;;;;;;9.43;3.10;;;;;;;-0.55;100.00;100932.53;5042952;28;20054;-64
2024/01/16 03:58:33;;;;;;;9.90;3.43;;;;;;;-0.56;100.00;100930.88;5047385;28;20028;-63
2024/01/16 04:00:59;;;;;;;11.17;3.10;;;;;;;-0.55;100.00;100932.53;5034782;28;20021;-64
2024/01/16 04:03:24;;;;;;;9.90;3.70;;;;;;;-0.55;100.00;100932.53;5038296;28;20115;-64
2024/01/16 04:05:50;;;;;;;11.50;3.70;;;;;;;-0.54;100.00;100935.97;5040808;28;20021;-63
2024/01/16 04:08:15;;;;;;;7.47;3.47;;;;;;;-0.54;100.00;100934.22;5041667;28;20094;-64
2024/01/16 04:10:41;;;;;;;10.10;3.60;;;;;;;-0.55;100.00;100927.31;5041364;28;20020;-64
2024/01/16 04:13:07;;;;;;;12.63;3.93;;;;;;;-0.56;100.00;100925.66;5042008;28;20070;-63
2024/01/16 04:15:32;;;;;;;16.23;4.00;;;;;;;-0.55;100.00;100931.69;5044074;28;20037;-64
2024/01/16 04:17:58;;;;;;;16.30;3.90;;;;;;;-0.56;100.00;100930.88;5043328;28;20024;-64
2024/01/16 04:20:23;;;;;;;12.07;3.90;;;;;;;-0.57;100.00;100921.38;5042559;28;20631;-63
2024/01/16 04:22:48;;;;;;;13.97;4.33;;;;;;;-0.56;100.00;100917.81;5043491;28;20052;-64
2024/01/16 04:25:14;;;;;;;15.73;4.90;;;;;;;-0.56;100.00;100922.19;5045264;28;20076;-63
2024/01/16 04:27:40;;;;;;;12.27;5.10;;;;;;;-0.60;100.00;100910.25;5042072;28;20577;-63
2024/01/16 04:30:06;;;;;;;13.97;5.37;;;;;;;-0.56;100.00;100919.59;5042382;28;20031;-63
2024/01/16 04:32:31;;;;;;;14.20;5.10;;;;;;;-0.56;100.00;100916.97;5050165;28;20027;-63
2024/01/16 04:34:57;;;;;;;14.23;5.53;;;;;;;-0.59;100.00;100914.53;5043111;28;20025;-63
2024/01/16 04:37:22;;;;;;;20.13;5.93;;;;;;;-0.57;100.00;100920.53;5042829;28;20017;-64
2024/01/16 04:39:47;;;;;;;13.90;6.30;;;;;;;-0.59;100.00;100914.53;5043019;28;20441;-63
2024/01/16 04:42:13;;;;;;;19.20;6.40;;;;;;;-0.58;100.00;100916.22;5038979;28;20025;-63
2024/01/16 04:44:38;;;;;;;17.07;6.57;;;;;;;-0.60;100.00;100918.94;5042208;28;20115;-63
2024/01/16 04:47:03;;;;;;;15.80;7.43;;;;;;;-0.61;100.00;100922.47;5043016;28;20032;-63
2024/01/16 04:49:29;;;;;;;18.77;6.93;;;;;;;-0.62;100.00;100915.56;5045545;28;20104;-63
2024/01/16 04:51:54;;;;;;;17.47;7.17;;;;;;;-0.64;100.00;100917.44;5042668;28;20024;-63
2024/01/16 04:54:19;;;;;;;16.50;7.70;;;;;;;-0.65;100.00;100923.59;5043412;28;20025;-63
2024/01/16 04:56:45;;;;;;;16.93;7.47;;;;;;;-0.68;100.00;100924.63;5042285;28;20032;-63
2024/01/16 04:59:10;;;;;;;15.47;7.33;;;;;;;-0.68;100.00;100919.41;5037115;28;20028;-63
2024/01/16 05:01:35;;;;;;;16.63;7.30;;;;;;;-0.68;100.00;100924.63;5041756;28;20028;-63
2024/01/16 05:04:01;;;;;;;20.93;7.53;;;;;;;-0.67;100.00;100923.69;5041813;28;20027;-63
2024/01/16 05:06:26;;;;;;;16.00;6.90;;;;;;;-0.66;100.00;100919.31;5034751;28;20171;-64
2024/01/16 05:08:51;;;;;;;16.07;7.30;;;;;;;-0.66;100.00;100912.34;5040868;28;20021;-63
2024/01/16 05:11:17;;;;;;;17.67;7.67;;;;;;;-0.65;100.00;100913.16;5037869;28;20029;-64
2024/01/16 05:13:42;;;;;;;19.33;8.30;;;;;;;-0.66;100.00;100908.88;5035540;28;20628;-66
2024/01/16 05:16:07;;;;;;;16.67;8.50;;;;;;;-0.69;100.00;100909.91;5039192;28;20026;-64
2024/01/16 05:18:33;;;;;;;14.03;8.53;;;;;;;-0.71;100.00;100909.19;5040286;28;20027;-64
2024/01/16 05:20:59;;;;;;;18.50;9.07;;;;;;;-0.74;100.00;100908.53;5042228;28;20104;-64
2024/01/16 05:23:24;;;;;;;22.67;9.00;;;;;;;-0.74;100.00;100900.72;5043186;28;20036;-64
2024/01/16 05:25:49;;;;;;;20.57;9.30;;;;;;;-0.74;100.00;100903.31;5048081;28;20022;-64
2024/01/16 05:28:15;;;;;;;18.20;8.47;;;;;;;-0.72;100.00;100901.47;5041767;28;20036;-64
2024/01/16 05:30:40;;;;;;;18.10;8.50;;;;;;;-0.72;100.00;100899.69;5039936;28;20059;-64
2024/01/16 05:33:07;;;;;;;16.13;8.27;;;;;;;-0.71;100.00;100898.75;5052738;28;20101;-64
2024/01/16 05:35:32;;;;;;;36.30;9.87;;;;;;;-0.71;100.00;100893.53;5043692;28;20487;-64
2024/01/16 05:37:59;;;;;;;17.23;8.40;;;;;;;-0.71;100.00;100883.09;5046531;28;20029;-64
2024/01/16 05:40:24;;;;;;;17.57;8.50;;;;;;;-0.76;100.00;100879.97;5047772;28;20035;-64
2024/01/16 05:42:50;;;;;;;22.80;9.60;;;;;;;-0.78;100.00;100881.00;5044108;28;20024;-64
2024/01/16 05:45:17;;;;;;;13.53;8.50;;;;;;;-0.81;100.00;100883.78;5036497;28;20068;-64
2024/01/16 05:47:42;;;;;;;16.17;9.13;;;;;;;-0.86;100.00;100880.66;5042041;28;20434;-64
2024/01/16 05:50:08;;;;;;;20.77;9.83;;;;;;;-0.90;100.00;100874.75;5040303;28;20037;-64
2024/01/16 05:52:34;;;;;;;22.33;9.30;;;;;;;-0.96;100.00;100869.94;5046286;28;20028;-64
2024/01/16 05:55:00;;;;;;;29.03;10.43;;;;;;;-0.97;100.00;100869.09;5035764;28;20052;-64
2024/01/16 05:57:26;;;;;;;18.63;10.27;;;;;;;-0.99;100.00;100873.56;5032609;28;20067;-64
2024/01/16 05:59:51;;;;;;;21.73;10.27;;;;;;;-0.98;100.00;100871.81;5048945;28;20041;-64
2024/01/16 06:02:17;;;;;;;27.60;11.20;;;;;;;-0.98;100.00;100877.84;5034574;28;20410;-64
2024/01/16 06:04:42;;;;;;;23.07;10.50;;;;;;;-0.98;100.00;100877.03;5043633;28;20045;-64
2024/01/16 06:07:08;;;;;;;23.77;10.67;;;;;;;-1.00;100.00;100869.31;5048316;28;20040;-64
2024/01/16 06:09:38;;;;;;;24.53;10.70;;;;;;;-1.01;100.00;100875.44;5034830;28;20053;-64
2024/01/16 06:12:03;;;;;;;20.47;10.60;;;;;;;-1.00;100.00;100878.88;5039139;28;20482;-64
2024/01/16 06:14:29;;;;;;;22.23;10.73;;;;;;;-1.04;100.00;100869.59;5048958;28;20062;-64
2024/01/16 06:16:54;;;;;;;18.50;10.07;;;;;;;-1.12;100.00;100861.41;5040397;28;20108;-64
2024/01/16 06:19:19;;;;;;;21.43;10.70;;;;;;;-1.12;100.00;100869.25;5040729;28;20028;-64
2024/01/16 06:21:45;;;;;;;18.77;9.80;;;;;;;-1.15;100.00;100869.44;5043385;28;20484;-64
2024/01/16 06:24:11;;;;;;;23.53;10.70;;;;;;;-1.16;100.00;100875.53;5041915;28;20124;-64
2024/01/16 06:26:36;;;;;;;19.23;10.00;;;;;;;-1.20;100.00;100864.47;5046456;28;20551;-64
2024/01/16 06:29:02;;;;;;;20.17;9.60;;;;;;;-1.23;100.00;100864.66;5035961;28;20045;-64
2024/01/16 06:31:27;;;;;;;22.37;9.70;;;;;;;-1.23;100.00;100861.22;5038580;28;20033;-64
2024/01/16 06:33:52;;;;;;;19.63;9.27;;;;;;;-1.26;100.00;100860.50;5054587;28;20112;-64
2024/01/16 06:36:17;;;;;;;21.13;9.13;;;;;;;-1.28;100.00;100864.97;5045884;28;20047;-64
2024/01/16 06:38:43;;;;;;;24.73;9.47;;;;;;;-1.30;100.00;100868.59;5043714;28;20029;-64
2024/01/16 06:41:08;;;;;;;23.23;9.30;;;;;;;-1.30;100.00;100866.81;5034346;28;20182;-64
2024/01/16 06:43:34;;;;;;;22.97;8.97;;;;;;;-1.30;100.00;100877.25;5039444;28;20405;-64
2024/01/16 06:45:59;;;;;;;21.13;8.80;;;;;;;-1.30;100.00;100869.44;5044649;28;20029;-64
2024/01/16 06:48:25;;;;;;;27.67;9.30;;;;;;;-1.32;100.00;100867.84;5036534;28;20854;-64
2024/01/16 06:50:51;;;;;;;18.93;9.00;;;;;;;-1.29;100.00;100871.09;5037557;28;20028;-64
2024/01/16 06:53:16;;;;;;;18.63;8.83;;;;;;;-1.29;100.00;100878.09;5046932;28;20025;-64
2024/01/16 06:55:41;;;;;;;19.87;9.00;;;;;;;-1.27;100.00;100881.44;5037354;28;20033;-64
2024/01/16 06:58:07;;;;;;;18.93;8.10;;;;;;;-1.26;100.00;100876.13;5030133;28;20112;-63
2024/01/16 07:00:32;;;;;;;18.50;8.13;;;;;;;-1.27;100.00;100889.25;5035244;28;20021;-64
2024/01/16 07:02:57;;;;;;;21.47;8.70;;;;;;;-1.26;100.00;100876.13;5034649;28;20036;-64
2024/01/16 07:05:23;;;;;;;18.17;8.00;;;;;;;-1.27;100.00;100871.00;5034641;28;20119;-64
2024/01/16 07:07:48;;;;;;;17.13;8.17;;;;;;;-1.26;100.00;100883.09;5035284;28;20049;-64
2024/01/16 07:10:18;;;;;;;18.33;7.90;;;;;;;-1.28;100.00;100890.19;5034251;28;20114;-64
2024/01/16 07:12:44;;;;;;;19.42;8.30;;;;;;;-1.29;100.00;100889.34;5042822;28;20055;-64
2024/01/16 07:15:09;;;;;;;13.73;7.67;;;;;;;-1.28;100.00;100896.22;5040626;28;20044;-64
2024/01/16 07:17:35;;;;;;;22.23;7.53;;;;;;;-1.28;100.00;100887.56;5049078;28;20032;-63
2024/01/16 07:20:00;;;;;;;16.97;7.27;;;;;;;-1.31;100.00;100891.19;5032582;28;20152;-64
2024/01/16 07:22:27;;;;;;;21.50;8.03;;;;;;;-1.33;100.00;100892.22;5034086;28;20061;-64
2024/01/16 07:24:52;;;;;;;15.17;7.53;;;;;;;-1.35;100.00;100884.50;5037683;28;20052;-64
2024/01/16 07:27:17;;;;;;;14.10;6.60;;;;;;;-1.31;100.00;100903.38;5034539;28;20151;-64
2024/01/16 07:29:43;;;;;;;18.40;6.93;;;;;;;-1.31;100.00;100895.56;5043513;28;20107;-64
2024/01/16 07:32:10;;;;;;;15.30;7.63;;;;;;;-1.32;100.00;100896.50;5034541;28;20036;-64
2024/01/16 07:34:36;;;;;;;17.23;7.23;;;;;;;-1.31;100.00;100900.78;5038980;28;20632;-63
2024/01/16 07:37:01;;;;;;;14.57;7.23;;;;;;;-1.32;100.00;100893.91;5040044;28;20033;-64
2024/01/16 07:39:26;;;;;;;15.00;7.30;;;;;;;-1.33;100.00;100898.28;5039898;28;20048;-64
2024/01/16 07:41:52;;;;;;;14.90;7.20;;;;;;;-1.33;100.00;100903.47;5040208;28;20033;-64
2024/01/16 07:44:17;;;;;;;14.17;7.30;;;;;;;-1.33;100.00;100900.03;5036134;28;20039;-64
2024/01/16 07:46:42;;;;;;;14.30;6.70;;;;;;;-1.33;100.00;100900.88;5037249;28;20037;-64
2024/01/16 07:49:08;;;;;;;12.37;6.10;;;;;;;-1.33;100.00;100908.69;5046842;28;20033;-64
2024/01/16 07:51:33;;;;;;;12.70;6.47;;;;;;;-1.32;100.00;100914.75;5053234;28;20028;-64
2024/01/16 07:54:09;;;;;;;14.00;6.80;;;;;;;-1.33;100.00;100923.50;5044900;28;20025;-64
2024/01/16 07:56:36;;;;;;;15.27;6.93;;;;;;;-1.36;100.00;100913.25;5040607;28;20029;-64
2024/01/16 07:59:02;;;;;;;15.53;6.77;;;;;;;-1.33;100.00;100924.31;5048406;28;20044;-64
2024/01/16 08:01:32;;;;;;;16.13;7.07;;;;;;;-1.33;100.00;100918.28;5037682;28;20032;-64
2024/01/16 08:03:57;;;;;;;13.57;6.13;;;;;;;-1.31;100.00;100926.84;5048287;28;20057;-64
2024/01/16 08:06:23;;;;;;;11.23;6.50;;;;;;;-1.35;100.00;100917.53;5039717;28;20147;-64
2024/01/16 08:08:49;;;;;;;16.33;6.77;;;;;;;-1.34;100.00;100922.66;5042948;28;20065;-64
2024/01/16 08:11:15;;;;;;;15.77;6.70;;;;;;;-1.35;100.00;100918.38;5042515;28;20028;-64
2024/01/16 08:13:40;;;;;;;20.77;6.93;;;;;;;-1.38;100.00;100915.94;5044805;28;20063;-64
2024/01/16 08:16:05;;;;;;;12.10;5.80;;;;;;;-1.35;100.00;100922.75;5037565;28;20060;-64
2024/01/16 08:18:31;;;;;;;15.60;6.50;;;;;;;-1.34;100.00;100920.03;5036675;28;20036;-64
2024/01/16 08:20:57;;;;;;;17.50;6.20;;;;;;;-1.36;100.00;100916.69;5037417;28;20033;-64
2024/01/16 08:23:22;;;;;;;14.60;6.47;;;;;;;-1.33;100.00;100919.13;5039988;28;20563;-63
2024/01/16 08:25:48;;;;;;;14.40;5.97;;;;;;;-1.33;100.00;100923.50;5040880;28;20051;-64
2024/01/16 08:28:14;;;;;;;14.40;6.70;;;;;;;-1.31;100.00;100916.41;5044601;28;20025;-64
2024/01/16 08:30:39;;;;;;;17.33;7.10;;;;;;;-1.32;100.00;100914.75;5038847;28;20468;-64
2024/01/16 08:33:04;;;;;;;11.60;5.83;;;;;;;-1.32;100.00;100910.38;5052855;28;20032;-64
2024/01/16 08:35:30;;;;;;;9.50;6.17;;;;;;;-1.32;100.00;100915.56;5043791;28;20120;-64
2024/01/16 08:37:55;;;;;;;15.13;6.23;;;;;;;-1.31;100.00;100919.84;5043187;28;20025;-64
2024/01/16 08:40:21;;;;;;;15.37;6.33;;;;;;;-1.28;100.00;100916.22;5040237;28;20064;-63
2024/01/16 08:42:51;;;;;;;15.60;6.40;;;;;;;-1.28;100.00;100918.84;5048230;28;20070;-64
2024/01/16 08:45:16;;;;;;;15.47;6.53;;;;;;;-1.29;100.00;100922.38;5041675;28;20052;-64
2024/01/16 08:47:42;;;;;;;10.53;5.97;;;;;;;-1.27;100.00;100917.91;5041022;28;20117;-63
2024/01/16 08:50:09;;;;;;;11.50;6.03;;;;;;;-1.27;100.00;100920.50;5040504;28;20036;-64
2024/01/16 08:52:34;;;;;;;15.93;6.10;;;;;;;-1.28;100.00;100917.06;5042482;28;20123;-64
2024/01/16 08:54:59;;;;;;;13.83;6.37;;;;;;;-1.25;100.00;100911.66;5043065;28;20151;-64
2024/01/16 08:57:25;;;;;;;12.47;6.00;;;;;;;-1.23;100.00;100914.19;5043835;28;20385;-64
2024/01/16 08:59:50;;;;;;;11.77;6.07;;;;;;;-1.22;100.00;100922.81;5046700;28;20096;-63
2024/01/16 09:02:16;;;;;;;11.80;5.60;;;;;;;-1.19;100.00;100920.03;5039745;28;20029;-63
2024/01/16 09:04:41;;;;;;;11.90;5.67;;;;;;;-1.18;100.00;100922.53;5030574;28;20029;-64
2024/01/16 09:07:06;;;;;;;13.40;5.57;;;;;;;-1.15;100.00;100926.75;5046303;28;20393;-64
2024/01/16 09:09:32;;;;;;;9.60;5.30;;;;;;;-1.14;100.00;100918.00;5038980;28;20035;-64
2024/01/16 09:11:57;;;;;;;14.33;5.30;;;;;;;-1.14;100.00;100918.84;5042971;28;20086;-64
2024/01/16 09:14:23;;;;;;;13.13;5.67;;;;;;;-1.13;100.00;100930.94;5040327;28;20328;-64
2024/01/16 09:16:48;;;;;;;12.77;5.83;;;;;;;-1.11;100.00;100923.88;5046611;28;20810;-64
2024/01/16 09:19:14;;;;;;;13.93;5.10;;;;;;;-1.11;100.00;100923.03;5052750;28;20043;-63
2024/01/16 09:21:39;;;;;;;10.23;5.30;;;;;;;-1.11;100.00;100926.47;5041206;28;20103;-64
2024/01/16 09:24:04;;;;;;;10.60;5.43;;;;;;;-1.09;100.00;100921.16;5035228;28;20021;-64
2024/01/16 09:26:31;;;;;;;12.83;5.60;;;;;;;-1.08;100.00;100908.03;5039641;28;20033;-64
2024/01/16 09:28:57;;;;;;;13.33;5.10;;;;;;;-1.07;100.00;100907.09;5042832;28;20481;-64
2024/01/16 09:31:22;;;;;;;11.50;5.50;;;;;;;-1.04;100.00;100914.72;5038847;28;20056;-64
2024/01/16 09:33:48;;;;;;;13.83;5.33;;;;;;;-1.05;100.00;100901.78;5043835;28;20033;-64
2024/01/16 09:36:14;;;;;;;14.80;5.30;;;;;;;-1.02;100.00;100910.25;5030194;28;20075;-64
2024/01/16 09:38:39;;;;;;;10.30;5.27;;;;;;;-0.99;100.00;100914.44;5039246;28;20064;-64
2024/01/16 09:41:05;;;;;;;10.30;5.23;;;;;;;-0.97;100.00;100915.19;5041096;28;20033;-64
2024/01/16 09:43:32;;;;;;;9.60;4.90;;;;;;;-0.93;100.00;100919.28;5037754;28;20040;-64
2024/01/16 09:46:01;;;;;;;11.10;5.30;;;;;;;-0.91;100.00;100927.00;5038427;28;20636;-64
2024/01/16 09:48:30;;;;;;;14.82;5.70;;;;;;;-0.88;100.00;100922.41;5036956;28;20024;-64
2024/01/16 09:50:55;;;;;;;12.32;5.22;;;;;;;-0.86;100.00;100917.16;5032713;28;20131;-64
2024/01/16 09:53:21;;;;;;;11.93;5.00;;;;;;;-0.85;100.00;100924.03;5046440;28;20119;-64
2024/01/16 09:55:49;;;;;;;13.37;5.67;;;;;;;-0.90;100.00;100911.25;5041899;28;20474;-64
2024/01/16 09:58:15;;;;;;;12.33;5.73;;;;;;;-0.83;100.00;100912.56;5041771;28;20036;-64
2024/01/16 10:00:43;;;;;;;10.47;5.17;;;;;;;-0.83;100.00;100911.72;5043967;28;20029;-64
2024/01/16 10:03:12;;;;;;;13.97;5.13;;;;;;;-0.80;100.00;100908.94;5047270;28;20032;-64
2024/01/16 10:05:40;;;;;;;12.57;5.13;;;;;;;-0.80;100.00;100894.13;5037800;28;20118;-64
2024/01/16 10:08:07;;;;;;;14.07;5.13;;;;;;;-0.81;100.00;100900.28;5031613;28;20025;-64
2024/01/16 10:10:33;;;;;;;10.90;5.10;;;;;;;-0.76;100.00;100911.25;5044771;28;20500;-64
2024/01/16 10:12:59;;;;;;;12.70;5.43;;;;;;;-0.71;100.00;100908.34;5049139;28;20029;-64
2024/01/16 10:15:25;;;;;;;9.70;4.90;;;;;;;-0.66;100.00;100898.47;5037554;28;20043;-64
2024/01/16 10:17:50;;;;;;;9.10;4.90;;;;;;;-0.62;100.00;100900.75;5036475;28;20025;-64
2024/01/16 10:20:17;;;;;;;10.43;5.27;;;;;;;-0.58;100.00;100898.78;5034702;28;20029;-64
2024/01/16 10:22:55;;;;;;;10.57;5.00;;;;;;;-0.53;100.00;100882.88;5033451;28;20487;-64
2024/01/16 10:25:22;;;;;;;13.20;5.13;;;;;;;-0.53;100.00;100882.88;5046325;28;20025;-64
2024/01/16 10:27:48;;;;;;;11.03;5.27;;;;;;;-0.51;100.00;100883.63;5037405;28;20020;-64
2024/01/16 10:30:13;;;;;;;11.13;5.43;;;;;;;-0.51;100.00;100874.03;5046028;28;20021;-64
2024/01/16 10:32:41;;;;;;;13.40;5.60;;;;;;;-0.47;100.00;100880.72;5042355;28;20111;-64
2024/01/16 10:35:13;;;;;;;10.87;5.67;;;;;;;-0.42;100.00;100883.84;5047515;28;20033;-64
2024/01/16 10:37:48;;;;;;;12.80;5.40;;;;;;;-0.36;100.00;100869.56;5035874;28;20541;-64
2024/01/16 10:40:18;;;;;;;10.87;5.30;;;;;;;-0.30;100.00;100876.97;5045763;28;20023;-64
2024/01/16 10:42:57;;;;;;;10.70;5.70;;;;;;;-0.21;100.00;100865.13;5038013;28;20551;-64
2024/01/16 10:45:22;;;;;;;17.20;6.60;;;;;;;-0.16;100.00;100874.31;5037037;28;20055;-64
2024/01/16 10:47:48;;;;;;;15.10;5.93;;;;;;;-0.15;100.00;100869.94;5041198;28;20563;-64
2024/01/16 10:50:14;;;;;;;11.37;5.77;;;;;;;-0.10;100.00;100873.06;5039731;28;20103;-64
2024/01/16 10:52:51;;;;;;;13.10;5.80;;;;;;;-0.02;100.00;100876.00;5040589;28;20021;-64
2024/01/16 10:55:22;;;;;;;12.60;5.97;;;;;;;0.02;100.00;100874.88;5055141;28;20037;-64
2024/01/16 10:57:48;;;;;;;13.07;5.70;;;;;;;0.09;99.97;100881.38;5037876;28;20096;-64
2024/01/16 11:00:17;;;;;;;15.13;6.50;;;;;;;0.16;99.67;100864.34;5041324;28;20028;-64
2024/01/16 11:02:49;;;;;;;11.98;5.95;;;;;;;0.21;99.48;100858.81;5041659;28;20394;-64